Time,TemperatureF,DewpointF,PressureIn,WindDirection,WindDirectionDegrees,WindSpeedMPH,WindSpeedGustMPH,Humidity,HourlyPrecipIn,Conditions,Clouds,dailyrainin,SoftwareType,DateUTC
2013-08-22 00:14:00,72.0,69.0,30.06,West,270,0.0,0.0,89,0.00,,,0.00,,2013-08-22 04:14:00,
2013-08-22 00:23:00,72.0,69.0,30.06,West,270,0.0,0.0,89,0.00,,,0.00,,2013-08-22 04:23:00,
2013-08-22 00:54:00,70.0,68.0,30.07,West,270,0.0,0.0,92,0.00,,,0.00,,2013-08-22 04:54:00,
2013-08-22 01:13:00,70.0,67.0,30.07,West,270,0.0,0.0,90,0.00,,,0.00,,2013-08-22 05:13:00,
2013-08-22 01:22:00,70.0,67.0,30.07,West,270,0.0,0.0,90,0.00,,,0.00,,2013-08-22 05:22:00,
2013-08-22 01:43:00,69.0,66.0,30.06,West,270,0.0,0.0,91,0.00,,,0.00,,2013-08-22 05:43:00,
2013-08-22 01:53:00,69.0,67.0,30.05,West,270,0.0,0.0,93,0.00,,,0.00,,2013-08-22 05:53:00,
2013-08-22 02:12:00,68.0,66.0,30.05,West,270,0.0,0.0,92,0.00,,,0.00,,2013-08-22 06:12:00,
2013-08-22 02:22:00,68.0,66.0,30.05,West,270,0.0,0.0,92,0.00,,,0.00,,2013-08-22 06:22:00,
2013-08-22 02:42:00,68.0,66.0,30.06,West,270,0.0,0.0,94,0.00,,,0.00,,2013-08-22 06:42:00,
2013-08-22 02:52:00,68.0,66.0,30.06,West,270,0.0,0.0,94,0.00,,,0.00,,2013-08-22 06:52:00,
2013-08-22 03:11:00,68.0,66.0,30.06,West,270,0.0,0.0,93,0.00,,,0.00,,2013-08-22 07:11:00,
2013-08-22 03:22:00,67.0,65.0,30.06,West,270,0.0,0.0,93,0.00,,,0.00,,2013-08-22 07:22:00,
2013-08-22 03:32:00,67.0,65.0,30.06,West,270,0.0,0.0,93,0.00,,,0.00,,2013-08-22 07:32:00,
2013-08-22 03:42:00,67.0,65.0,30.06,West,270,0.0,0.0,93,0.00,,,0.00,,2013-08-22 07:42:00,
2013-08-22 03:52:00,67.0,65.0,30.05,West,270,0.0,0.0,93,0.00,,,0.00,,2013-08-22 07:52:00,
2013-08-22 04:03:00,67.0,65.0,30.05,West,270,0.0,0.0,93,0.00,,,0.00,,2013-08-22 08:03:00,
2013-08-22 04:12:00,67.0,65.0,30.05,West,270,0.0,0.0,93,0.00,,,0.00,,2013-08-22 08:12:00,
2013-08-22 04:22:00,66.0,64.0,30.06,West,270,0.0,0.0,93,0.00,,,0.00,,2013-08-22 08:22:00,
2013-08-22 04:53:00,67.0,66.0,30.06,West,270,0.0,0.0,95,0.00,,,0.00,,2013-08-22 08:53:00,
2013-08-22 05:11:00,66.0,64.0,30.06,West,270,0.0,0.0,93,0.00,,,0.00,,2013-08-22 09:11:00,
2013-08-22 05:22:00,66.0,64.0,30.06,West,270,0.0,0.0,93,0.00,,,0.00,,2013-08-22 09:22:00,
2013-08-22 05:54:00,66.0,64.0,30.06,West,270,0.0,0.0,94,0.00,,,0.00,,2013-08-22 09:54:00,
2013-08-22 06:12:00,66.0,64.0,30.06,West,270,0.0,0.0,94,0.00,,,0.00,,2013-08-22 10:12:00,
2013-08-22 06:23:00,66.0,64.0,30.06,West,270,0.0,0.0,94,0.00,,,0.00,,2013-08-22 10:23:00,
2013-08-22 06:29:00,65.0,64.0,30.07,West,270,0.0,0.0,95,0.00,,,0.00,,2013-08-22 10:29:00,
2013-08-22 06:42:00,66.0,65.0,30.06,West,270,0.0,0.0,95,0.00,,,0.00,,2013-08-22 10:42:00,
2013-08-22 08:52:00,66.0,65.0,30.07,West,270,0.0,0.0,97,0.00,,,0.00,,2013-08-22 12:52:00,
2013-08-22 09:12:00,67.0,66.0,30.07,West,270,0.0,0.0,97,0.00,,,0.00,,2013-08-22 13:12:00,
2013-08-22 09:22:00,68.0,67.0,30.07,West,270,0.0,0.0,97,0.00,,,0.00,,2013-08-22 13:22:00,
2013-08-22 09:52:00,70.0,69.0,30.06,West,270,0.0,0.0,98,0.00,,,0.00,,2013-08-22 13:52:00,
2013-08-22 10:11:00,71.0,70.0,30.07,West,260,0.0,0.0,98,0.00,,,0.00,,2013-08-22 14:11:00,
2013-08-22 10:22:00,73.0,72.0,30.06,West,272,0.0,0.0,96,0.00,,,0.00,,2013-08-22 14:22:00,
2013-08-22 10:33:00,73.0,72.0,30.06,West,272,0.0,0.0,96,0.00,,,0.00,,2013-08-22 14:33:00,
2013-08-22 10:52:00,73.0,72.0,30.06,West,272,0.0,0.0,96,0.00,,,0.00,,2013-08-22 14:52:00,
2013-08-22 11:12:00,78.0,72.0,30.07,West,263,0.0,0.0,83,0.00,,,0.00,,2013-08-22 15:12:00,
2013-08-22 11:22:00,78.0,72.0,30.07,West,263,0.0,0.0,83,0.00,,,0.00,,2013-08-22 15:22:00,
2013-08-22 11:43:00,80.0,72.0,30.07,WSW,256,0.0,0.0,78,0.00,,,0.00,,2013-08-22 15:43:00,
2013-08-22 11:55:00,80.0,72.0,30.07,WSW,256,0.0,0.0,78,0.00,,,0.00,,2013-08-22 15:55:00,
2013-08-22 12:14:00,83.0,73.0,30.07,West,281,0.0,0.0,72,0.00,,,0.00,,2013-08-22 16:14:00,
2013-08-22 12:24:00,84.0,73.0,30.08,West,264,0.0,0.0,70,0.00,,,0.00,,2013-08-22 16:24:00,
2013-08-22 12:53:00,86.0,74.0,30.07,WSW,253,0.0,0.0,67,0.00,,,0.00,,2013-08-22 16:53:00,
2013-08-22 13:02:00,86.0,74.0,30.07,WSW,253,0.0,0.0,67,0.00,,,0.00,,2013-08-22 17:02:00,
2013-08-22 13:12:00,86.0,74.0,30.07,WSW,253,0.0,0.0,67,0.00,,,0.00,,2013-08-22 17:12:00,
2013-08-22 13:24:00,88.0,74.0,30.06,West,264,0.0,0.0,63,0.00,,,0.00,,2013-08-22 17:24:00,
2013-08-22 13:43:00,90.0,74.0,30.06,West,261,0.0,0.0,60,0.00,,,0.00,,2013-08-22 17:43:00,
2013-08-22 13:53:00,90.0,74.0,30.06,West,261,0.0,0.0,60,0.00,,,0.00,,2013-08-22 17:53:00,
2013-08-22 14:12:00,90.0,74.0,30.05,West,276,0.0,0.0,59,0.00,,,0.00,,2013-08-22 18:12:00,
2013-08-22 14:22:00,90.0,74.0,30.05,West,276,0.0,0.0,59,0.00,,,0.00,,2013-08-22 18:22:00,
2013-08-22 14:43:00,91.0,74.0,30.04,WNW,283,0.0,0.0,57,0.00,,,0.00,,2013-08-22 18:43:00,
2013-08-22 14:52:00,91.0,73.0,30.04,WNW,282,0.0,0.0,56,0.00,,,0.00,,2013-08-22 18:52:00,
2013-08-22 15:02:00,91.0,73.0,30.04,WNW,282,0.0,0.0,56,0.00,,,0.00,,2013-08-22 19:02:00,
2013-08-22 15:11:00,91.0,73.0,30.04,WNW,282,0.0,0.0,56,0.00,,,0.00,,2013-08-22 19:11:00,
2013-08-22 15:22:00,91.0,73.0,30.04,WNW,282,0.0,0.0,56,0.00,,,0.00,,2013-08-22 19:22:00,
2013-08-22 15:53:00,91.0,72.0,30.03,WNW,295,0.0,0.0,54,0.00,,,0.00,,2013-08-22 19:53:00,
2013-08-22 16:02:00,91.0,72.0,30.03,WNW,295,0.0,0.0,54,0.00,,,0.00,,2013-08-22 20:02:00,
2013-08-22 16:12:00,91.0,72.0,30.03,WNW,295,0.0,0.0,54,0.00,,,0.00,,2013-08-22 20:12:00,
2013-08-22 16:23:00,88.0,71.0,30.02,WNW,292,0.0,0.0,58,0.00,,,0.00,,2013-08-22 20:23:00,
2013-08-22 16:42:00,87.0,71.0,30.01,WNW,289,0.0,0.0,59,0.00,,,0.00,,2013-08-22 20:42:00,
2013-08-22 16:52:00,89.0,71.0,30.01,WNW,289,0.0,0.0,56,0.00,,,0.00,,2013-08-22 20:52:00,
2013-08-22 17:02:00,89.0,71.0,30.01,WNW,289,0.0,0.0,56,0.00,,,0.00,,2013-08-22 21:02:00,
2013-08-22 17:13:00,89.0,71.0,30.01,WNW,289,0.0,0.0,56,0.00,,,0.00,,2013-08-22 21:13:00,
2013-08-22 17:22:00,89.0,71.0,30.01,WNW,289,0.0,0.0,56,0.00,,,0.00,,2013-08-22 21:22:00,